createdAt,value
2023-03-18T00:01:03.897Z,79.58
2023-03-18T00:03:32.592Z,79.57
2023-03-18T00:06:05.191Z,79.48
2023-03-18T00:08:33.912Z,79.69
2023-03-18T00:11:05.476Z,79.52
2023-03-18T00:13:33.743Z,79.51
2023-03-18T00:16:02.527Z,79.36
2023-03-18T00:18:31.660Z,79.31
2023-03-18T00:21:00.951Z,79.38
2023-03-18T00:23:29.383Z,79.06
2023-03-18T00:25:59.900Z,79.21
2023-03-18T00:28:30.138Z,79.60
2023-03-18T00:31:03.905Z,79.14
2023-03-18T00:33:31.869Z,79.01
2023-03-18T00:35:59.658Z,78.78
2023-03-18T00:38:27.583Z,78.22
2023-03-18T00:41:01.477Z,78.11
2023-03-18T00:43:35.913Z,78.50
2023-03-18T00:46:05.449Z,78.64
2023-03-18T00:48:33.195Z,79.02
2023-03-18T00:51:00.783Z,78.64
2023-03-18T00:53:28.625Z,78.66
2023-03-18T00:55:56.322Z,78.69
2023-03-18T00:58:24.608Z,78.97
2023-03-18T01:00:53.634Z,79.18
2023-03-18T01:03:25.719Z,79.33
2023-03-18T01:05:54.115Z,78.99
2023-03-18T01:08:22.982Z,79.49
2023-03-18T01:10:53.035Z,79.08
2023-03-18T01:13:21.431Z,78.70
2023-03-18T01:15:49.038Z,79.00
2023-03-18T01:18:19.010Z,79.35
2023-03-18T01:20:47.120Z,79.49
2023-03-18T01:23:16.652Z,78.97
2023-03-18T01:25:45.600Z,79.15
2023-03-18T01:28:19.181Z,79.75
2023-03-18T01:30:46.782Z,79.49
2023-03-18T01:33:19.905Z,79.67
2023-03-18T01:35:47.892Z,79.87
2023-03-18T01:38:17.333Z,79.45
2023-03-18T01:40:45.168Z,79.36
2023-03-18T01:43:17.962Z,79.43
2023-03-18T01:45:50.242Z,79.28
2023-03-18T01:48:21.826Z,79.18
2023-03-18T01:50:53.828Z,79.07
2023-03-18T01:53:23.971Z,79.27
2023-03-18T01:55:52.146Z,79.16
2023-03-18T01:58:22.752Z,79.39
2023-03-18T02:01:02.531Z,79.24
2023-03-18T02:03:32.285Z,79.12
2023-03-18T02:05:59.937Z,79.29
2023-03-18T02:08:29.100Z,79.47
2023-03-18T02:10:57.627Z,79.53
2023-03-18T02:13:27.384Z,79.54
2023-03-18T02:15:59.252Z,79.58
2023-03-18T02:18:35.211Z,79.08
2023-03-18T02:21:16.842Z,79.51
2023-03-18T02:23:56.779Z,79.10
2023-03-18T02:26:30.623Z,79.26
2023-03-18T02:29:04.826Z,79.34
2023-03-18T02:31:42.670Z,79.03
2023-03-18T02:34:12.640Z,78.99
2023-03-18T02:36:41.901Z,78.93
2023-03-18T02:39:14.557Z,78.81
2023-03-18T02:41:43.333Z,78.76
2023-03-18T02:44:13.113Z,78.33
2023-03-18T02:46:57.329Z,78.11
2023-03-18T02:49:27.718Z,77.49
2023-03-18T02:51:56.364Z,77.01
2023-03-18T02:54:27.648Z,77.04
2023-03-18T02:56:55.460Z,76.87
2023-03-18T02:59:25.645Z,76.74
2023-03-18T03:01:54.922Z,76.85
2023-03-18T03:04:25.703Z,77.71
2023-03-18T03:06:54.903Z,77.39
2023-03-18T03:09:35.388Z,77.30
2023-03-18T03:12:03.404Z,77.55
2023-03-18T03:14:33.205Z,76.97
2023-03-18T03:17:02.974Z,76.10
2023-03-18T03:19:31.239Z,76.33
2023-03-18T03:21:58.863Z,76.08
2023-03-18T03:24:27.310Z,76.48
2023-03-18T03:26:55.010Z,76.80
2023-03-18T03:29:22.781Z,76.85
2023-03-18T03:31:51.752Z,77.44
2023-03-18T03:34:19.705Z,77.42
2023-03-18T03:36:47.319Z,77.81
2023-03-18T03:39:15.207Z,77.85
2023-03-18T03:41:42.871Z,77.86
2023-03-18T03:44:11.366Z,77.67
2023-03-18T03:46:39.054Z,77.46
2023-03-18T03:49:08.217Z,78.55
2023-03-18T03:51:36.433Z,78.67
2023-03-18T03:54:04.294Z,78.01
2023-03-18T03:56:32.306Z,79.02
2023-03-18T03:59:00.640Z,78.83
2023-03-18T04:01:42.672Z,78.75
2023-03-18T04:04:12.158Z,78.71
2023-03-18T04:06:39.951Z,77.76
2023-03-18T04:09:07.902Z,77.08
2023-03-18T04:11:35.531Z,75.65
2023-03-18T04:14:03.443Z,74.58
2023-03-18T04:16:31.272Z,73.45
2023-03-18T04:18:59.204Z,73.78
2023-03-18T04:21:28.297Z,72.97
2023-03-18T04:23:57.257Z,72.12
2023-03-18T04:26:24.977Z,71.93
2023-03-18T04:28:54.396Z,72.52
2023-03-18T04:31:23.597Z,72.92
2023-03-18T04:33:51.359Z,73.48
2023-03-18T04:36:19.176Z,74.49
2023-03-18T04:38:48.171Z,74.51
2023-03-18T04:41:15.931Z,73.68
2023-03-18T04:43:44.816Z,72.92
2023-03-18T04:46:13.025Z,73.52
2023-03-18T04:48:42.241Z,74.13
2023-03-18T04:51:10.776Z,74.28
2023-03-18T04:53:39.778Z,74.70
2023-03-18T04:56:10.959Z,74.52
2023-03-18T04:58:45.685Z,74.89
2023-03-18T05:01:19.263Z,74.25
2023-03-18T05:03:47.446Z,73.01
2023-03-18T05:06:23.441Z,71.65
2023-03-18T05:08:59.120Z,69.75
2023-03-18T05:11:31.483Z,69.08
2023-03-18T05:14:03.593Z,68.17
2023-03-18T05:16:40.086Z,68.77
2023-03-18T05:19:08.521Z,69.60
2023-03-18T05:21:39.397Z,69.96
2023-03-18T05:24:07.985Z,70.54
2023-03-18T05:26:41.315Z,70.80
2023-03-18T05:29:10.565Z,70.26
2023-03-18T05:32:01.341Z,70.79
2023-03-18T05:34:31.377Z,71.13
2023-03-18T05:36:59.701Z,71.51
2023-03-18T05:39:29.030Z,72.13
2023-03-18T05:42:02.229Z,72.18
2023-03-18T05:44:30.726Z,72.80
2023-03-18T05:47:01.792Z,72.44
2023-03-18T05:49:59.233Z,74.32
2023-03-18T05:52:28.278Z,74.10
2023-03-18T05:55:01.203Z,75.48
2023-03-18T05:57:34.494Z,76.67
2023-03-18T06:00:06.240Z,76.48
2023-03-18T06:02:49.620Z,76.56
2023-03-18T06:05:18.562Z,76.41
2023-03-18T06:07:47.887Z,77.64
2023-03-18T06:10:16.237Z,77.46
2023-03-18T06:12:47.690Z,76.73
2023-03-18T06:15:17.584Z,77.16
2023-03-18T06:17:45.771Z,76.59
2023-03-18T06:20:14.695Z,76.81
2023-03-18T06:22:43.623Z,76.38
2023-03-18T06:25:11.744Z,76.28
2023-03-18T06:27:41.124Z,76.21
2023-03-18T06:30:11.684Z,76.16
2023-03-18T06:32:41.250Z,76.27
2023-03-18T06:35:10.944Z,76.77
2023-03-18T06:37:40.491Z,75.98
2023-03-18T06:40:12.188Z,76.18
2023-03-18T06:42:41.058Z,75.35
2023-03-18T06:45:17.159Z,74.82
2023-03-18T06:47:51.050Z,74.22
2023-03-18T06:50:20.589Z,74.59
2023-03-18T06:52:49.373Z,74.51
2023-03-18T06:55:19.818Z,74.10
2023-03-18T06:57:48.151Z,73.93
2023-03-18T07:00:22.836Z,73.96
2023-03-18T07:02:50.665Z,73.00
2023-03-18T07:05:20.630Z,73.09
2023-03-18T07:07:49.490Z,72.80
2023-03-18T07:10:20.899Z,73.18
2023-03-18T07:12:50.433Z,73.01
2023-03-18T07:15:22.470Z,72.36
2023-03-18T07:17:53.285Z,71.57
2023-03-18T07:20:23.626Z,70.88
2023-03-18T07:22:51.959Z,69.96
2023-03-18T07:25:21.762Z,69.93
2023-03-18T07:27:51.239Z,68.37
2023-03-18T07:30:21.255Z,68.26
2023-03-18T07:32:49.833Z,67.95
2023-03-18T07:35:17.694Z,67.94
2023-03-18T07:37:45.994Z,69.82
2023-03-18T07:40:14.236Z,68.91
2023-03-18T07:42:41.855Z,69.46
2023-03-18T07:45:11.005Z,70.34
2023-03-18T07:47:40.095Z,69.96
2023-03-18T07:50:09.029Z,69.94
2023-03-18T07:52:37.399Z,70.42
2023-03-18T07:55:05.989Z,70.71
2023-03-18T07:57:33.600Z,71.34
2023-03-18T08:00:01.429Z,70.80
2023-03-18T08:02:29.049Z,69.21
2023-03-18T08:04:58.982Z,66.80
2023-03-18T08:07:26.712Z,63.12
2023-03-18T08:09:54.742Z,61.45
2023-03-18T08:12:22.650Z,60.98
2023-03-18T08:14:50.260Z,60.39
2023-03-18T08:17:18.409Z,59.16
2023-03-18T08:19:47.071Z,59.50
2023-03-18T08:22:16.671Z,58.83
2023-03-18T08:24:45.646Z,58.50
2023-03-18T08:27:16.255Z,58.50
2023-03-18T08:29:44.801Z,58.90
2023-03-18T08:32:12.573Z,58.08
2023-03-18T08:34:40.354Z,58.06
2023-03-18T08:37:08.451Z,58.75
2023-03-18T08:39:37.613Z,59.43
2023-03-18T08:42:05.973Z,58.59
2023-03-18T08:44:34.072Z,58.96
2023-03-18T08:47:01.895Z,59.08
2023-03-18T08:49:30.167Z,58.92
2023-03-18T08:51:57.769Z,58.54
2023-03-18T08:54:25.438Z,58.58
2023-03-18T08:56:55.248Z,57.30
2023-03-18T08:59:22.938Z,57.92
2023-03-18T09:01:50.566Z,57.50
2023-03-18T09:04:18.539Z,56.91
2023-03-18T09:06:46.197Z,55.63
2023-03-18T09:09:14.374Z,54.06
2023-03-18T09:11:42.345Z,53.60
2023-03-18T09:14:11.981Z,54.04
2023-03-18T09:16:39.982Z,53.77
2023-03-18T09:19:08.147Z,53.51
2023-03-18T09:21:35.954Z,53.64
2023-03-18T09:24:07.016Z,51.58
2023-03-18T09:26:35.060Z,50.44
2023-03-18T09:29:02.699Z,50.05
2023-03-18T09:31:31.782Z,48.87
2023-03-18T09:33:59.696Z,47.01
2023-03-18T09:36:28.493Z,47.38
2023-03-18T09:38:56.458Z,46.76
2023-03-18T09:41:36.191Z,44.49
2023-03-18T09:44:14.701Z,45.11
2023-03-18T09:46:56.200Z,45.87
2023-03-18T09:49:43.835Z,44.09
2023-03-18T09:52:19.616Z,44.33
2023-03-18T09:54:55.108Z,43.97
2023-03-18T09:57:28.720Z,42.76
2023-03-18T10:00:05.129Z,43.07
2023-03-18T10:02:42.452Z,43.65
2023-03-18T10:05:16.669Z,42.65
2023-03-18T10:07:45.423Z,41.45
2023-03-18T10:10:22.641Z,41.25
2023-03-18T10:12:53.353Z,41.24
2023-03-18T10:15:25.269Z,40.31
2023-03-18T10:17:57.462Z,41.18
2023-03-18T10:20:34.317Z,40.07
2023-03-18T10:23:18.190Z,39.24
2023-03-18T10:25:53.502Z,39.08
2023-03-18T10:28:56.865Z,37.93
2023-03-18T10:31:35.197Z,39.11
2023-03-18T10:34:09.655Z,38.68
2023-03-18T10:36:45.090Z,38.14
2023-03-18T10:39:16.343Z,38.39
2023-03-18T10:41:49.911Z,37.92
2023-03-18T10:44:21.058Z,37.95
2023-03-18T10:46:50.668Z,36.37
2023-03-18T10:49:26.399Z,36.90
2023-03-18T10:51:58.786Z,37.25
2023-03-18T10:54:32.621Z,37.22
2023-03-18T10:57:00.396Z,36.43
2023-03-18T10:59:30.079Z,37.21
2023-03-18T11:02:04.461Z,36.02
2023-03-18T11:04:42.322Z,35.73
2023-03-18T11:07:16.362Z,35.87
2023-03-18T11:09:44.511Z,36.97
2023-03-18T11:12:18.972Z,36.13
2023-03-18T11:14:49.395Z,36.50
2023-03-18T11:17:23.255Z,36.44
2023-03-18T11:20:02.113Z,35.70
2023-03-18T11:22:32.120Z,35.59
2023-03-18T11:25:06.765Z,35.91
2023-03-18T11:27:39.490Z,35.16
2023-03-18T11:30:33.277Z,34.67
2023-03-18T11:33:07.165Z,35.33
2023-03-18T11:35:40.301Z,36.00
2023-03-18T11:38:15.111Z,34.97
2023-03-18T11:40:43.647Z,35.09
2023-03-18T11:43:19.483Z,36.02
2023-03-18T11:45:57.833Z,33.82
2023-03-18T11:48:32.180Z,34.35
2023-03-18T11:51:40.784Z,33.17
2023-03-18T11:54:27.511Z,34.17
2023-03-18T11:56:58.570Z,35.10
2023-03-18T11:59:38.698Z,34.77
2023-03-18T12:02:32.149Z,35.73
2023-03-18T12:05:09.483Z,34.54
2023-03-18T12:07:53.203Z,35.06
2023-03-18T12:10:28.305Z,35.10
2023-03-18T12:13:09.596Z,34.32
2023-03-18T12:15:47.453Z,34.53
2023-03-18T12:18:27.728Z,35.90
2023-03-18T12:21:01.209Z,34.71
2023-03-18T12:23:41.351Z,34.36
2023-03-18T12:26:14.104Z,34.99
2023-03-18T12:28:53.276Z,35.17
2023-03-18T12:31:35.318Z,35.69
2023-03-18T12:34:04.563Z,35.42
2023-03-18T12:36:50.130Z,34.17
2023-03-18T12:39:57.201Z,35.23
2023-03-18T12:42:37.249Z,33.35
2023-03-18T12:45:10.497Z,34.06
2023-03-18T12:47:43.885Z,33.24
2023-03-18T12:50:17.692Z,34.49
2023-03-18T12:52:49.208Z,33.50
2023-03-18T12:55:22.759Z,33.65
2023-03-18T12:57:55.049Z,33.56
2023-03-18T13:00:28.859Z,34.11
2023-03-18T13:03:06.904Z,32.85
2023-03-18T13:05:42.755Z,32.79
2023-03-18T13:08:42.866Z,33.73
2023-03-18T13:11:27.179Z,33.94
2023-03-18T13:14:00.825Z,33.53
2023-03-18T13:16:31.208Z,34.55
2023-03-18T13:19:00.449Z,34.87
2023-03-18T13:21:31.838Z,34.26
2023-03-18T13:24:18.603Z,34.33
2023-03-18T13:27:02.097Z,35.16
2023-03-18T13:29:38.120Z,36.25
2023-03-18T13:32:22.829Z,36.04
2023-03-18T13:35:50.709Z,35.31
2023-03-18T13:38:28.521Z,35.41
2023-03-18T13:41:32.662Z,35.45
2023-03-18T13:44:10.548Z,35.90
2023-03-18T13:46:38.506Z,35.63
2023-03-18T13:49:06.673Z,36.24
2023-03-18T13:51:52.601Z,35.72
2023-03-18T13:54:21.757Z,37.22
2023-03-18T13:56:55.457Z,38.05
2023-03-18T13:59:48.534Z,36.30
2023-03-18T14:02:45.564Z,37.18
2023-03-18T14:05:40.236Z,37.12
2023-03-18T14:08:42.396Z,37.21
2023-03-18T14:11:43.156Z,38.33
2023-03-18T14:15:06.236Z,36.24
2023-03-18T14:17:46.554Z,35.87
2023-03-18T14:20:40.066Z,34.86
2023-03-18T14:23:29.821Z,34.67
2023-03-18T14:26:02.614Z,33.39
2023-03-18T14:28:43.149Z,34.27
2023-03-18T14:31:30.135Z,34.59
2023-03-18T14:34:05.926Z,35.05
2023-03-18T14:37:22.606Z,35.36
2023-03-18T14:39:53.634Z,35.42
2023-03-18T14:42:34.153Z,35.99
2023-03-18T14:45:07.193Z,35.49
2023-03-18T14:47:43.048Z,36.04
2023-03-18T14:50:21.866Z,35.19
2023-03-18T14:52:55.858Z,34.88
2023-03-18T14:55:27.059Z,35.40
2023-03-18T14:57:54.938Z,35.38
2023-03-18T15:00:24.730Z,35.12
2023-03-18T15:03:00.954Z,34.75
2023-03-18T15:05:35.478Z,34.93
2023-03-18T15:08:07.324Z,34.37
2023-03-18T15:10:35.152Z,34.57
2023-03-18T15:13:07.068Z,35.49
2023-03-18T15:15:35.214Z,35.38
2023-03-18T15:18:07.968Z,35.44
2023-03-18T15:20:37.387Z,35.69
2023-03-18T15:23:09.963Z,36.07
2023-03-18T15:25:40.120Z,36.36
2023-03-18T15:28:08.004Z,36.04
2023-03-18T15:30:35.624Z,36.07
2023-03-18T15:33:06.694Z,36.08
2023-03-18T15:35:34.975Z,36.42
2023-03-18T15:38:17.418Z,36.52
2023-03-18T15:40:51.722Z,35.64
2023-03-18T15:43:30.675Z,35.62
2023-03-18T15:46:00.985Z,35.82
2023-03-18T15:48:34.880Z,35.56
2023-03-18T15:51:05.235Z,34.33
2023-03-18T15:53:41.942Z,34.52
2023-03-18T15:56:17.585Z,34.31
2023-03-18T15:58:46.108Z,33.97
2023-03-18T16:01:18.647Z,34.80
2023-03-18T16:03:47.692Z,33.60
2023-03-18T16:06:16.593Z,33.94
2023-03-18T16:08:46.469Z,34.90
2023-03-18T16:11:16.538Z,35.26
2023-03-18T16:13:45.465Z,36.17
2023-03-18T16:16:22.106Z,36.80
2023-03-18T16:18:49.884Z,36.67
2023-03-18T16:21:17.454Z,37.06
2023-03-18T16:23:47.966Z,37.77
2023-03-18T16:26:17.404Z,38.70
2023-03-18T16:28:48.317Z,38.17
2023-03-18T16:31:16.132Z,37.93
2023-03-18T16:33:46.368Z,37.68
2023-03-18T16:36:25.862Z,37.67
2023-03-18T16:38:54.815Z,39.01
2023-03-18T16:41:22.434Z,39.59
2023-03-18T16:43:50.504Z,40.72
2023-03-18T16:46:19.138Z,41.89
2023-03-18T16:48:49.518Z,43.13
2023-03-18T16:51:17.475Z,43.56
2023-03-18T16:53:45.299Z,44.10
2023-03-18T16:56:18.897Z,44.32
2023-03-18T16:58:46.521Z,44.78
2023-03-18T17:01:16.410Z,45.37
2023-03-18T17:03:45.717Z,45.79
2023-03-18T17:06:14.812Z,46.39
2023-03-18T17:08:42.591Z,46.36
2023-03-18T17:11:17.939Z,46.83
2023-03-18T17:13:48.662Z,46.94
2023-03-18T17:16:19.863Z,47.25
2023-03-18T17:18:48.101Z,47.60
2023-03-18T17:21:15.901Z,48.31
2023-03-18T17:23:43.643Z,48.88
2023-03-18T17:26:15.763Z,49.29
2023-03-18T17:28:46.651Z,49.65
2023-03-18T17:31:16.547Z,50.11
2023-03-18T17:33:44.459Z,50.37
2023-03-18T17:36:12.431Z,50.94
2023-03-18T17:38:40.279Z,51.30
2023-03-18T17:41:17.060Z,51.40
2023-03-18T17:43:44.868Z,51.67
2023-03-18T17:46:12.635Z,52.24
2023-03-18T17:48:41.957Z,52.54
2023-03-18T17:51:16.598Z,52.81
2023-03-18T17:53:47.980Z,52.93
2023-03-18T17:56:17.784Z,52.89
2023-03-18T17:58:47.180Z,53.52
2023-03-18T18:01:17.041Z,54.24
2023-03-18T18:03:47.375Z,55.81
2023-03-18T18:06:18.558Z,57.51
2023-03-18T18:08:47.068Z,57.64
2023-03-18T18:11:20.072Z,57.46
2023-03-18T18:13:48.907Z,57.92
2023-03-18T18:16:17.203Z,58.26
2023-03-18T18:18:49.535Z,59.13
2023-03-18T18:21:19.023Z,60.06
2023-03-18T18:23:47.375Z,60.23
2023-03-18T18:26:17.604Z,60.87
2023-03-18T18:28:47.637Z,61.03
2023-03-18T18:31:18.044Z,61.75
2023-03-18T18:33:49.994Z,62.58
2023-03-18T18:36:18.416Z,62.61
2023-03-18T18:38:46.473Z,62.42
2023-03-18T18:41:14.263Z,63.08
2023-03-18T18:43:42.007Z,63.51
2023-03-18T18:46:14.608Z,63.60
2023-03-18T18:48:44.411Z,63.95
2023-03-18T18:51:17.070Z,63.98
2023-03-18T18:53:45.395Z,63.87
2023-03-18T18:56:15.836Z,63.99
2023-03-18T18:58:43.506Z,64.34
2023-03-18T19:01:12.755Z,64.43
2023-03-18T19:03:41.475Z,64.69
2023-03-18T19:06:20.804Z,64.54
2023-03-18T19:08:48.591Z,65.52
2023-03-18T19:11:16.451Z,65.04
2023-03-18T19:13:44.883Z,65.99
2023-03-18T19:16:23.574Z,65.87
2023-03-18T19:18:51.414Z,66.00
2023-03-18T19:21:20.334Z,66.61
2023-03-18T19:23:48.166Z,67.14
2023-03-18T19:26:17.826Z,67.52
2023-03-18T19:28:58.828Z,67.78
2023-03-18T19:31:30.433Z,68.03
2023-03-18T19:34:00.314Z,68.51
2023-03-18T19:36:31.544Z,68.23
2023-03-18T19:39:01.347Z,68.69
2023-03-18T19:41:29.462Z,68.30
2023-03-18T19:44:01.883Z,68.39
2023-03-18T19:46:35.949Z,68.24
2023-03-18T19:49:03.783Z,68.31
2023-03-18T19:51:32.701Z,69.04
2023-03-18T19:54:01.258Z,69.73
2023-03-18T19:56:31.248Z,69.62
2023-03-18T19:59:00.243Z,70.10
2023-03-18T20:01:36.254Z,69.95
2023-03-18T20:04:16.114Z,69.65
2023-03-18T20:06:49.984Z,70.04
2023-03-18T20:09:18.707Z,69.97
2023-03-18T20:11:46.843Z,70.34
2023-03-18T20:14:23.657Z,70.39
2023-03-18T20:16:51.324Z,70.31
2023-03-18T20:19:18.983Z,70.17
2023-03-18T20:21:49.186Z,71.19
2023-03-18T20:24:20.170Z,71.32
2023-03-18T20:26:47.793Z,71.22
2023-03-18T20:29:17.680Z,71.98
2023-03-18T20:31:45.877Z,71.90
2023-03-18T20:34:14.050Z,71.68
2023-03-18T20:36:42.425Z,72.23
2023-03-18T20:39:20.207Z,72.11
2023-03-18T20:41:48.471Z,72.74
2023-03-18T20:44:16.230Z,71.92
2023-03-18T20:46:44.060Z,71.26
2023-03-18T20:49:12.904Z,71.03
2023-03-18T20:51:41.262Z,70.28
2023-03-18T20:54:18.940Z,70.17
2023-03-18T20:56:47.235Z,70.10
2023-03-18T20:59:14.955Z,70.26
2023-03-18T21:01:42.839Z,70.25
2023-03-18T21:04:13.528Z,70.61
2023-03-18T21:06:41.996Z,69.99
2023-03-18T21:09:10.637Z,70.15
2023-03-18T21:11:40.012Z,69.98
2023-03-18T21:14:07.764Z,70.37
2023-03-18T21:16:37.778Z,70.24
2023-03-18T21:19:05.963Z,70.33
2023-03-18T21:21:36.534Z,71.59
2023-03-18T21:24:13.958Z,71.44
2023-03-18T21:26:54.246Z,71.36
2023-03-18T21:29:29.221Z,71.99
2023-03-18T21:31:59.926Z,71.69
2023-03-18T21:34:27.725Z,72.11
2023-03-18T21:36:55.674Z,72.29
2023-03-18T21:39:23.282Z,72.41
2023-03-18T21:41:52.261Z,72.67
2023-03-18T21:44:19.866Z,73.04
2023-03-18T21:46:47.450Z,73.45
2023-03-18T21:49:15.982Z,74.11
2023-03-18T21:51:43.606Z,74.85
2023-03-18T21:54:18.718Z,75.42
2023-03-18T21:56:46.379Z,75.28
2023-03-18T21:59:15.491Z,75.42
2023-03-18T22:01:43.157Z,75.08
2023-03-18T22:04:10.942Z,75.35
2023-03-18T22:06:38.684Z,74.91
2023-03-18T22:09:07.235Z,74.58
2023-03-18T22:11:34.854Z,74.35
2023-03-18T22:14:02.532Z,74.52
2023-03-18T22:16:31.498Z,74.82
2023-03-18T22:18:59.220Z,74.65
2023-03-18T22:21:28.923Z,75.39
2023-03-18T22:23:58.117Z,75.18
2023-03-18T22:26:25.943Z,74.78
2023-03-18T22:28:53.673Z,74.77
2023-03-18T22:31:24.052Z,74.87
2023-03-18T22:33:53.466Z,75.09
2023-03-18T22:36:22.548Z,74.77
2023-03-18T22:38:51.040Z,74.79
2023-03-18T22:41:21.985Z,74.83
2023-03-18T22:43:50.058Z,75.04
2023-03-18T22:46:18.254Z,74.97
2023-03-18T22:48:46.248Z,74.54
2023-03-18T22:51:23.442Z,74.21
2023-03-18T22:53:53.204Z,74.53
2023-03-18T22:56:22.033Z,74.86
2023-03-18T22:58:50.515Z,74.53
2023-03-18T23:01:20.485Z,74.40
2023-03-18T23:03:49.064Z,75.21
2023-03-18T23:06:21.104Z,74.89
2023-03-18T23:08:49.267Z,75.60
2023-03-18T23:11:17.800Z,75.48
2023-03-18T23:13:49.879Z,75.26
2023-03-18T23:16:20.306Z,75.83
2023-03-18T23:18:48.580Z,75.74
2023-03-18T23:21:18.483Z,76.06
2023-03-18T23:23:46.397Z,76.01
2023-03-18T23:26:14.352Z,76.57
2023-03-18T23:28:44.843Z,76.51
2023-03-18T23:31:12.961Z,76.74
2023-03-18T23:33:40.960Z,77.10
2023-03-18T23:36:09.458Z,76.64
2023-03-18T23:38:39.034Z,76.87
2023-03-18T23:41:07.087Z,76.87
2023-03-18T23:43:35.018Z,76.46
2023-03-18T23:46:03.686Z,76.18
2023-03-18T23:48:31.423Z,76.00
2023-03-18T23:50:59.060Z,75.40
2023-03-18T23:53:27.173Z,75.42
2023-03-18T23:55:56.106Z,75.18
2023-03-18T23:58:23.828Z,74.94
